createdAt,value
2023-03-08T00:07:08.076Z,8.87
2023-03-08T00:22:11.916Z,7.75
2023-03-08T00:37:14.373Z,6.90
2023-03-08T00:52:16.184Z,8.09
2023-03-08T01:07:18.371Z,8.72
2023-03-08T01:22:20.042Z,6.40
2023-03-08T01:37:21.933Z,6.76
2023-03-08T01:52:47.186Z,7.69
2023-03-08T02:07:49.153Z,6.03
2023-03-08T02:22:53.327Z,7.18
2023-03-08T02:37:55.177Z,6.59
2023-03-08T02:52:56.866Z,4.53
2023-03-08T03:07:59.373Z,3.85
2023-03-08T03:23:01.111Z,5.91
2023-03-08T03:38:02.745Z,6.00
2023-03-08T03:53:04.480Z,6.18
2023-03-08T04:08:09.224Z,5.98
2023-03-08T04:23:10.879Z,6.26
2023-03-08T04:38:12.537Z,6.02
2023-03-08T04:53:14.260Z,4.75
2023-03-08T05:08:17.450Z,6.33
2023-03-08T05:23:18.926Z,6.80
2023-03-08T05:38:21.882Z,5.85
2023-03-08T05:53:23.828Z,6.71
2023-03-08T06:08:25.558Z,5.04
2023-03-08T06:23:29.134Z,7.02
2023-03-08T06:38:33.492Z,7.46
2023-03-08T06:53:36.333Z,8.15
2023-03-08T07:08:38.605Z,8.57
2023-03-08T07:23:40.308Z,8.21
2023-03-08T07:38:41.981Z,8.24
2023-03-08T07:53:43.664Z,8.36
2023-03-08T08:08:45.332Z,9.00
2023-03-08T08:23:47.761Z,10.44
2023-03-08T08:38:50.340Z,9.61
2023-03-08T08:53:52.632Z,10.78
2023-03-08T09:08:57.151Z,11.26
2023-03-08T09:24:01.054Z,10.41
2023-03-08T09:39:04.037Z,11.20
2023-03-08T09:54:10.049Z,11.96
2023-03-08T10:09:17.864Z,12.31
2023-03-08T10:24:27.260Z,11.37
2023-03-08T10:39:29.047Z,12.24
2023-03-08T10:54:30.801Z,11.97
2023-03-08T11:09:36.974Z,13.93
2023-03-08T11:24:57.204Z,14.42
2023-03-08T11:40:18.874Z,13.54
2023-03-08T11:55:38.843Z,15.96
2023-03-08T12:10:57.102Z,17.01
2023-03-08T12:26:23.230Z,16.68
2023-03-08T12:41:28.662Z,15.95
2023-03-08T12:56:37.376Z,14.84
2023-03-08T13:11:44.426Z,14.25
2023-03-08T13:27:07.574Z,15.29
2023-03-08T13:42:12.125Z,15.32
2023-03-08T13:57:26.779Z,15.54
2023-03-08T14:12:31.705Z,14.45
2023-03-08T14:27:41.674Z,15.04
2023-03-08T14:42:46.966Z,13.49
2023-03-08T14:57:49.090Z,14.25
2023-03-08T15:12:51.045Z,14.13
2023-03-08T15:27:52.770Z,13.85
2023-03-08T15:42:54.869Z,11.02
2023-03-08T15:57:58.045Z,13.32
2023-03-08T16:12:59.827Z,13.46
2023-03-08T16:28:01.495Z,13.38
2023-03-08T16:43:03.506Z,11.55
2023-03-08T16:58:05.117Z,10.91
2023-03-08T17:13:07.130Z,11.63
2023-03-08T17:28:09.961Z,11.00
2023-03-08T17:43:11.946Z,11.03
2023-03-08T17:58:13.640Z,11.41
2023-03-08T18:13:15.408Z,10.99
2023-03-08T18:28:18.667Z,11.65
2023-03-08T18:43:20.523Z,11.35
2023-03-08T18:58:23.132Z,11.06
2023-03-08T19:13:25.241Z,10.55
2023-03-08T19:28:27.739Z,10.70
2023-03-08T19:43:29.379Z,11.86
2023-03-08T19:58:31.076Z,8.70
2023-03-08T20:13:32.932Z,11.61
2023-03-08T20:28:34.869Z,11.71
2023-03-08T20:43:36.577Z,10.48
2023-03-08T20:58:38.245Z,11.88
2023-03-08T21:13:40.228Z,11.28
2023-03-08T21:28:42.250Z,11.87
2023-03-08T21:43:43.921Z,10.44
2023-03-08T21:58:45.677Z,12.14
2023-03-08T22:13:52.781Z,12.03
2023-03-08T22:28:56.070Z,12.16
2023-03-08T22:43:57.936Z,11.98
2023-03-08T22:59:01.261Z,12.05
2023-03-08T23:14:03.867Z,10.14
2023-03-08T23:29:06.637Z,11.71
2023-03-08T23:44:09.653Z,9.49
2023-03-08T23:59:20.122Z,10.37
